sensor_id;sensor_type;location;lat;lon;timestamp;pressure;altitude;pressure_sealevel;temperature;humidity
83563;BME280;73535;52.500;13.482;2023-11-21T00:00:45;100451.69;;;8.48;86.83
83563;BME280;73535;52.500;13.482;2023-11-21T00:03:10;100451.88;;;8.45;86.77
83563;BME280;73535;52.500;13.482;2023-11-21T00:05:36;100453.03;;;8.41;87.07
83563;BME280;73535;52.500;13.482;2023-11-21T00:08:01;100447.22;;;8.36;86.91
83563;BME280;73535;52.500;13.482;2023-11-21T00:10:27;100453.59;;;8.32;86.80
83563;BME280;73535;52.500;13.482;2023-11-21T00:12:53;100461.75;;;8.28;86.76
83563;BME280;73535;52.500;13.482;2023-11-21T00:15:20;100460.44;;;8.21;86.60
83563;BME280;73535;52.500;13.482;2023-11-21T00:17:45;100469.31;;;8.18;86.78
83563;BME280;73535;52.500;13.482;2023-11-21T00:20:11;100478.66;;;8.08;86.89
83563;BME280;73535;52.500;13.482;2023-11-21T00:22:38;100473.25;;;8.11;86.66
83563;BME280;73535;52.500;13.482;2023-11-21T00:25:05;100474.47;;;8.06;86.34
83563;BME280;73535;52.500;13.482;2023-11-21T00:27:30;100468.69;;;8.01;86.20
83563;BME280;73535;52.500;13.482;2023-11-21T00:29:56;100472.34;;;7.98;86.18
83563;BME280;73535;52.500;13.482;2023-11-21T00:32:21;100471.88;;;7.91;85.89
83563;BME280;73535;52.500;13.482;2023-11-21T00:34:47;100478.31;;;7.86;86.22
83563;BME280;73535;52.500;13.482;2023-11-21T00:37:12;100480.16;;;7.84;86.01
83563;BME280;73535;52.500;13.482;2023-11-21T00:39:37;100485.78;;;7.78;86.14
83563;BME280;73535;52.500;13.482;2023-11-21T00:42:02;100490.44;;;7.73;86.39
83563;BME280;73535;52.500;13.482;2023-11-21T00:44:29;100485.22;;;7.73;86.48
83563;BME280;73535;52.500;13.482;2023-11-21T00:46:55;100490.38;;;7.74;86.36
83563;BME280;73535;52.500;13.482;2023-11-21T00:49:20;100496.03;;;7.67;86.74
83563;BME280;73535;52.500;13.482;2023-11-21T00:51:45;100491.09;;;7.62;86.31
83563;BME280;73535;52.500;13.482;2023-11-21T00:54:11;100499.97;;;7.60;85.96
83563;BME280;73535;52.500;13.482;2023-11-21T00:56:36;100500.84;;;7.60;86.41
83563;BME280;73535;52.500;13.482;2023-11-21T00:59:02;100504.44;;;7.58;86.19
83563;BME280;73535;52.500;13.482;2023-11-21T01:01:29;100504.91;;;7.50;86.14
83563;BME280;73535;52.500;13.482;2023-11-21T01:03:55;100503.88;;;7.53;85.80
83563;BME280;73535;52.500;13.482;2023-11-21T01:06:20;100510.13;;;7.50;85.60
83563;BME280;73535;52.500;13.482;2023-11-21T01:08:45;100516.56;;;7.45;85.28
83563;BME280;73535;52.500;13.482;2023-11-21T01:11:11;100517.84;;;7.37;84.93
83563;BME280;73535;52.500;13.482;2023-11-21T01:13:40;100518.97;;;7.33;85.59
83563;BME280;73535;52.500;13.482;2023-11-21T01:16:05;100521.78;;;7.30;85.88
83563;BME280;73535;52.500;13.482;2023-11-21T01:18:37;100526.22;;;7.28;85.69
83563;BME280;73535;52.500;13.482;2023-11-21T01:21:02;100537.97;;;7.21;85.14
83563;BME280;73535;52.500;13.482;2023-11-21T01:23:27;100534.81;;;7.16;84.97
83563;BME280;73535;52.500;13.482;2023-11-21T01:25:54;100541.13;;;7.12;85.15
83563;BME280;73535;52.500;13.482;2023-11-21T01:28:19;100543.91;;;7.09;85.30
83563;BME280;73535;52.500;13.482;2023-11-21T01:30:45;100548.22;;;7.10;85.31
83563;BME280;73535;52.500;13.482;2023-11-21T01:33:11;100551.84;;;7.08;85.18
83563;BME280;73535;52.500;13.482;2023-11-21T01:35:36;100554.47;;;7.08;85.17
83563;BME280;73535;52.500;13.482;2023-11-21T01:38:01;100550.22;;;7.05;85.12
83563;BME280;73535;52.500;13.482;2023-11-21T01:40:26;100555.44;;;7.05;85.33
83563;BME280;73535;52.500;13.482;2023-11-21T01:42:53;100558.00;;;7.07;85.30
83563;BME280;73535;52.500;13.482;2023-11-21T01:45:18;100552.94;;;7.04;85.11
83563;BME280;73535;52.500;13.482;2023-11-21T01:47:44;100565.91;;;7.05;85.41
83563;BME280;73535;52.500;13.482;2023-11-21T01:50:14;100554.63;;;7.05;85.58
83563;BME280;73535;52.500;13.482;2023-11-21T01:52:41;100563.41;;;7.04;85.36
83563;BME280;73535;52.500;13.482;2023-11-21T01:55:08;100561.47;;;7.07;85.65
83563;BME280;73535;52.500;13.482;2023-11-21T01:57:35;100558.06;;;7.05;85.61
83563;BME280;73535;52.500;13.482;2023-11-21T02:00:03;100568.63;;;7.04;85.55
83563;BME280;73535;52.500;13.482;2023-11-21T02:02:45;100568.44;;;7.07;85.34
83563;BME280;73535;52.500;13.482;2023-11-21T02:05:20;100570.31;;;7.05;85.28
83563;BME280;73535;52.500;13.482;2023-11-21T02:07:46;100575.53;;;6.89;85.00
83563;BME280;73535;52.500;13.482;2023-11-21T02:10:13;100577.81;;;6.95;85.21
83563;BME280;73535;52.500;13.482;2023-11-21T02:12:42;100577.25;;;6.90;84.93
83563;BME280;73535;52.500;13.482;2023-11-21T02:15:09;100578.31;;;6.86;84.83
83563;BME280;73535;52.500;13.482;2023-11-21T02:17:41;100581.69;;;6.88;84.74
83563;BME280;73535;52.500;13.482;2023-11-21T02:20:10;100579.06;;;6.88;84.88
83563;BME280;73535;52.500;13.482;2023-11-21T02:22:40;100585.41;;;6.84;84.48
83563;BME280;73535;52.500;13.482;2023-11-21T02:25:06;100585.41;;;6.84;84.15
83563;BME280;73535;52.500;13.482;2023-11-21T02:27:32;100582.28;;;6.77;84.39
83563;BME280;73535;52.500;13.482;2023-11-21T02:29:58;100584.00;;;6.78;84.60
83563;BME280;73535;52.500;13.482;2023-11-21T02:32:23;100582.97;;;6.81;84.13
83563;BME280;73535;52.500;13.482;2023-11-21T02:34:51;100590.97;;;6.78;84.10
83563;BME280;73535;52.500;13.482;2023-11-21T02:37:16;100594.50;;;6.77;83.82
83563;BME280;73535;52.500;13.482;2023-11-21T02:39:41;100598.97;;;6.75;83.72
83563;BME280;73535;52.500;13.482;2023-11-21T02:42:06;100599.22;;;6.70;84.00
83563;BME280;73535;52.500;13.482;2023-11-21T02:44:32;100609.41;;;6.75;83.78
83563;BME280;73535;52.500;13.482;2023-11-21T02:46:57;100615.72;;;6.71;83.54
83563;BME280;73535;52.500;13.482;2023-11-21T02:49:23;100609.75;;;6.69;83.32
83563;BME280;73535;52.500;13.482;2023-11-21T02:51:48;100615.88;;;6.68;83.21
83563;BME280;73535;52.500;13.482;2023-11-21T02:54:13;100613.44;;;6.65;83.03
83563;BME280;73535;52.500;13.482;2023-11-21T02:56:38;100606.63;;;6.62;82.97
83563;BME280;73535;52.500;13.482;2023-11-21T02:59:05;100606.78;;;6.59;83.41
83563;BME280;73535;52.500;13.482;2023-11-21T03:01:30;100608.66;;;6.57;83.41
83563;BME280;73535;52.500;13.482;2023-11-21T03:03:56;100611.00;;;6.62;83.52
83563;BME280;73535;52.500;13.482;2023-11-21T03:06:21;100616.38;;;6.59;83.32
83563;BME280;73535;52.500;13.482;2023-11-21T03:08:47;100610.34;;;6.58;83.93
83563;BME280;73535;52.500;13.482;2023-11-21T03:11:13;100612.28;;;6.55;83.76
83563;BME280;73535;52.500;13.482;2023-11-21T03:13:42;100621.03;;;6.54;83.62
83563;BME280;73535;52.500;13.482;2023-11-21T03:16:10;100624.41;;;6.56;83.48
83563;BME280;73535;52.500;13.482;2023-11-21T03:18:39;100622.72;;;6.55;83.02
83563;BME280;73535;52.500;13.482;2023-11-21T03:21:05;100625.22;;;6.56;82.98
83563;BME280;73535;52.500;13.482;2023-11-21T03:23:31;100619.19;;;6.56;82.80
83563;BME280;73535;52.500;13.482;2023-11-21T03:25:56;100630.63;;;6.53;83.37
83563;BME280;73535;52.500;13.482;2023-11-21T03:28:21;100632.47;;;6.51;83.14
83563;BME280;73535;52.500;13.482;2023-11-21T03:30:46;100643.59;;;6.55;83.01
83563;BME280;73535;52.500;13.482;2023-11-21T03:33:12;100649.06;;;6.50;82.81
83563;BME280;73535;52.500;13.482;2023-11-21T03:35:37;100644.63;;;6.52;82.61
83563;BME280;73535;52.500;13.482;2023-11-21T03:38:02;100650.69;;;6.53;82.44
83563;BME280;73535;52.500;13.482;2023-11-21T03:40:28;100653.47;;;6.50;82.85
83563;BME280;73535;52.500;13.482;2023-11-21T03:42:53;100646.38;;;6.52;82.50
83563;BME280;73535;52.500;13.482;2023-11-21T03:45:18;100660.13;;;6.55;82.65
83563;BME280;73535;52.500;13.482;2023-11-21T03:47:43;100662.94;;;6.51;82.46
83563;BME280;73535;52.500;13.482;2023-11-21T03:50:09;100663.44;;;6.42;82.02
83563;BME280;73535;52.500;13.482;2023-11-21T03:52:34;100661.75;;;6.41;81.94
83563;BME280;73535;52.500;13.482;2023-11-21T03:55:00;100670.06;;;6.32;81.63
83563;BME280;73535;52.500;13.482;2023-11-21T03:57:26;100672.22;;;6.41;81.44
83563;BME280;73535;52.500;13.482;2023-11-21T03:59:52;100674.03;;;6.39;81.23
83563;BME280;73535;52.500;13.482;2023-11-21T04:02:18;100671.34;;;6.40;80.99
83563;BME280;73535;52.500;13.482;2023-11-21T04:04:43;100688.72;;;6.41;80.99
83563;BME280;73535;52.500;13.482;2023-11-21T04:07:09;100682.81;;;6.38;80.49
83563;BME280;73535;52.500;13.482;2023-11-21T04:09:34;100678.50;;;6.37;80.35
83563;BME280;73535;52.500;13.482;2023-11-21T04:12:01;100684.47;;;6.39;80.10
83563;BME280;73535;52.500;13.482;2023-11-21T04:14:26;100682.03;;;6.36;80.65
83563;BME280;73535;52.500;13.482;2023-11-21T04:16:51;100694.47;;;6.31;80.28
83563;BME280;73535;52.500;13.482;2023-11-21T04:19:18;100694.41;;;6.32;80.36
83563;BME280;73535;52.500;13.482;2023-11-21T04:21:43;100684.97;;;6.30;80.33
83563;BME280;73535;52.500;13.482;2023-11-21T04:24:09;100703.09;;;6.33;80.36
83563;BME280;73535;52.500;13.482;2023-11-21T04:26:34;100704.06;;;6.30;80.89
83563;BME280;73535;52.500;13.482;2023-11-21T04:29:00;100707.38;;;6.34;80.84
83563;BME280;73535;52.500;13.482;2023-11-21T04:31:25;100711.97;;;6.29;80.68
83563;BME280;73535;52.500;13.482;2023-11-21T04:33:50;100713.53;;;6.33;81.01
83563;BME280;73535;52.500;13.482;2023-11-21T04:36:15;100714.44;;;6.32;80.36
83563;BME280;73535;52.500;13.482;2023-11-21T04:38:41;100717.97;;;6.31;80.22
83563;BME280;73535;52.500;13.482;2023-11-21T04:41:06;100717.97;;;6.31;79.53
83563;BME280;73535;52.500;13.482;2023-11-21T04:43:31;100722.19;;;6.33;79.68
83563;BME280;73535;52.500;13.482;2023-11-21T04:45:57;100721.66;;;6.27;79.45
83563;BME280;73535;52.500;13.482;2023-11-21T04:48:22;100718.81;;;6.31;79.55
83563;BME280;73535;52.500;13.482;2023-11-21T04:50:47;100721.66;;;6.27;79.57
83563;BME280;73535;52.500;13.482;2023-11-21T04:53:12;100723.66;;;6.21;79.43
83563;BME280;73535;52.500;13.482;2023-11-21T04:55:39;100722.03;;;6.19;78.94
83563;BME280;73535;52.500;13.482;2023-11-21T04:58:04;100732.56;;;6.17;78.96
83563;BME280;73535;52.500;13.482;2023-11-21T05:00:30;100729.66;;;6.23;78.80
83563;BME280;73535;52.500;13.482;2023-11-21T05:02:55;100728.88;;;6.21;79.00
83563;BME280;73535;52.500;13.482;2023-11-21T05:05:20;100744.06;;;6.13;79.77
83563;BME280;73535;52.500;13.482;2023-11-21T05:07:45;100746.63;;;6.15;78.64
83563;BME280;73535;52.500;13.482;2023-11-21T05:10:11;100746.38;;;6.19;78.93
83563;BME280;73535;52.500;13.482;2023-11-21T05:12:37;100757.81;;;6.17;78.22
83563;BME280;73535;52.500;13.482;2023-11-21T05:15:04;100755.09;;;6.18;78.48
83563;BME280;73535;52.500;13.482;2023-11-21T05:17:32;100763.09;;;6.15;78.04
83563;BME280;73535;52.500;13.482;2023-11-21T05:19:57;100763.19;;;6.14;78.07
83563;BME280;73535;52.500;13.482;2023-11-21T05:22:23;100773.31;;;6.20;78.03
83563;BME280;73535;52.500;13.482;2023-11-21T05:24:48;100770.91;;;6.15;78.29
83563;BME280;73535;52.500;13.482;2023-11-21T05:27:13;100777.69;;;6.19;78.01
83563;BME280;73535;52.500;13.482;2023-11-21T05:29:39;100775.06;;;6.19;78.72
83563;BME280;73535;52.500;13.482;2023-11-21T05:32:04;100768.09;;;6.20;78.10
83563;BME280;73535;52.500;13.482;2023-11-21T05:34:30;100765.53;;;6.18;78.58
83563;BME280;73535;52.500;13.482;2023-11-21T05:36:55;100769.25;;;6.14;78.33
83563;BME280;73535;52.500;13.482;2023-11-21T05:39:23;100780.75;;;6.10;77.99
83563;BME280;73535;52.500;13.482;2023-11-21T05:41:49;100792.13;;;6.09;78.01
83563;BME280;73535;52.500;13.482;2023-11-21T05:44:14;100785.91;;;6.12;77.66
83563;BME280;73535;52.500;13.482;2023-11-21T05:46:40;100791.13;;;6.12;78.08
83563;BME280;73535;52.500;13.482;2023-11-21T05:49:05;100795.41;;;6.13;77.78
83563;BME280;73535;52.500;13.482;2023-11-21T05:51:31;100796.84;;;6.18;78.46
83563;BME280;73535;52.500;13.482;2023-11-21T05:53:56;100810.38;;;6.09;78.44
83563;BME280;73535;52.500;13.482;2023-11-21T05:56:21;100802.72;;;6.06;78.33
83563;BME280;73535;52.500;13.482;2023-11-21T05:58:46;100806.69;;;6.13;78.31
83563;BME280;73535;52.500;13.482;2023-11-21T06:01:11;100813.13;;;6.06;77.67
83563;BME280;73535;52.500;13.482;2023-11-21T06:03:38;100809.28;;;5.96;76.96
83563;BME280;73535;52.500;13.482;2023-11-21T06:06:03;100808.22;;;6.00;77.30
83563;BME280;73535;52.500;13.482;2023-11-21T06:08:29;100812.72;;;5.78;77.90
83563;BME280;73535;52.500;13.482;2023-11-21T06:10:54;100822.09;;;5.82;77.69
83563;BME280;73535;52.500;13.482;2023-11-21T06:13:20;100827.59;;;5.76;78.37
83563;BME280;73535;52.500;13.482;2023-11-21T06:15:49;100824.16;;;5.76;78.12
83563;BME280;73535;52.500;13.482;2023-11-21T06:18:14;100830.97;;;5.78;78.63
83563;BME280;73535;52.500;13.482;2023-11-21T06:20:39;100838.94;;;5.75;78.17
83563;BME280;73535;52.500;13.482;2023-11-21T06:23:05;100843.09;;;5.79;78.36
83563;BME280;73535;52.500;13.482;2023-11-21T06:25:30;100840.25;;;5.85;78.46
83563;BME280;73535;52.500;13.482;2023-11-21T06:27:58;100845.19;;;5.91;78.28
83563;BME280;73535;52.500;13.482;2023-11-21T06:30:24;100852.91;;;5.93;78.50
83563;BME280;73535;52.500;13.482;2023-11-21T06:32:49;100854.53;;;5.77;78.78
83563;BME280;73535;52.500;13.482;2023-11-21T06:35:16;100860.66;;;5.76;78.71
83563;BME280;73535;52.500;13.482;2023-11-21T06:37:41;100863.13;;;5.79;79.32
83563;BME280;73535;52.500;13.482;2023-11-21T06:40:08;100863.97;;;5.79;79.43
83563;BME280;73535;52.500;13.482;2023-11-21T06:42:34;100870.88;;;5.80;80.06
83563;BME280;73535;52.500;13.482;2023-11-21T06:45:00;100881.22;;;5.82;79.90
83563;BME280;73535;52.500;13.482;2023-11-21T06:47:28;100883.00;;;5.81;79.96
83563;BME280;73535;52.500;13.482;2023-11-21T06:49:54;100883.34;;;5.92;79.62
83563;BME280;73535;52.500;13.482;2023-11-21T06:52:20;100886.91;;;5.91;79.14
83563;BME280;73535;52.500;13.482;2023-11-21T06:54:45;100887.94;;;5.87;78.71
83563;BME280;73535;52.500;13.482;2023-11-21T06:57:12;100889.56;;;5.90;78.85
83563;BME280;73535;52.500;13.482;2023-11-21T06:59:37;100883.22;;;5.95;78.63
83563;BME280;73535;52.500;13.482;2023-11-21T07:02:03;100892.13;;;5.91;77.95
83563;BME280;73535;52.500;13.482;2023-11-21T07:04:31;100894.59;;;5.94;78.47
83563;BME280;73535;52.500;13.482;2023-11-21T07:06:57;100884.88;;;5.98;78.55
83563;BME280;73535;52.500;13.482;2023-11-21T07:09:22;100896.22;;;5.97;78.32
83563;BME280;73535;52.500;13.482;2023-11-21T07:11:48;100896.50;;;5.91;77.71
83563;BME280;73535;52.500;13.482;2023-11-21T07:14:14;100898.91;;;5.75;77.91
83563;BME280;73535;52.500;13.482;2023-11-21T07:16:39;100910.53;;;5.88;78.23
83563;BME280;73535;52.500;13.482;2023-11-21T07:19:05;100911.28;;;5.90;77.91
83563;BME280;73535;52.500;13.482;2023-11-21T07:21:36;100912.38;;;5.86;77.94
83563;BME280;73535;52.500;13.482;2023-11-21T07:24:03;100909.59;;;5.89;77.37
83563;BME280;73535;52.500;13.482;2023-11-21T07:26:29;100922.63;;;5.89;77.59
83563;BME280;73535;52.500;13.482;2023-11-21T07:28:55;100922.56;;;5.91;78.05
83563;BME280;73535;52.500;13.482;2023-11-21T07:31:21;100919.25;;;5.87;77.66
83563;BME280;73535;52.500;13.482;2023-11-21T07:33:47;100919.44;;;5.83;77.08
83563;BME280;73535;52.500;13.482;2023-11-21T07:36:15;100923.72;;;5.84;77.45
83563;BME280;73535;52.500;13.482;2023-11-21T07:38:43;100929.78;;;5.84;76.88
83563;BME280;73535;52.500;13.482;2023-11-21T07:41:09;100923.69;;;5.85;76.92
83563;BME280;73535;52.500;13.482;2023-11-21T07:43:35;100927.06;;;5.87;77.22
83563;BME280;73535;52.500;13.482;2023-11-21T07:46:04;100935.84;;;5.86;76.56
83563;BME280;73535;52.500;13.482;2023-11-21T07:48:30;100936.59;;;5.88;77.00
83563;BME280;73535;52.500;13.482;2023-11-21T07:50:55;100930.53;;;5.88;77.12
83563;BME280;73535;52.500;13.482;2023-11-21T07:53:20;100940.44;;;5.80;75.84
83563;BME280;73535;52.500;13.482;2023-11-21T07:55:47;100941.44;;;5.77;74.85
83563;BME280;73535;52.500;13.482;2023-11-21T07:58:12;100941.44;;;5.77;75.68
83563;BME280;73535;52.500;13.482;2023-11-21T08:00:38;100953.03;;;5.70;75.84
83563;BME280;73535;52.500;13.482;2023-11-21T08:03:04;100946.78;;;5.74;75.72
83563;BME280;73535;52.500;13.482;2023-11-21T08:05:29;100948.41;;;5.77;76.01
83563;BME280;73535;52.500;13.482;2023-11-21T08:07:54;100952.91;;;5.73;75.65
83563;BME280;73535;52.500;13.482;2023-11-21T08:10:20;100969.31;;;5.75;75.88
83563;BME280;73535;52.500;13.482;2023-11-21T08:12:46;100970.44;;;5.69;75.18
83563;BME280;73535;52.500;13.482;2023-11-21T08:15:13;100978.22;;;5.71;75.44
83563;BME280;73535;52.500;13.482;2023-11-21T08:17:38;100977.41;;;5.69;75.48
83563;BME280;73535;52.500;13.482;2023-11-21T08:20:04;100978.09;;;5.74;75.68
83563;BME280;73535;52.500;13.482;2023-11-21T08:22:29;100986.81;;;5.73;76.10
83563;BME280;73535;52.500;13.482;2023-11-21T08:24:55;100983.44;;;5.71;75.96
83563;BME280;73535;52.500;13.482;2023-11-21T08:27:21;100973.91;;;5.70;75.62
83563;BME280;73535;52.500;13.482;2023-11-21T08:29:46;100976.31;;;5.54;75.65
83563;BME280;73535;52.500;13.482;2023-11-21T08:32:12;100978.16;;;5.52;76.17
83563;BME280;73535;52.500;13.482;2023-11-21T08:34:37;100977.19;;;5.55;76.19
83563;BME280;73535;52.500;13.482;2023-11-21T08:37:04;100976.53;;;5.50;76.34
83563;BME280;73535;52.500;13.482;2023-11-21T08:39:30;100979.38;;;5.45;76.72
83563;BME280;73535;52.500;13.482;2023-11-21T08:41:57;100984.56;;;5.45;76.56
83563;BME280;73535;52.500;13.482;2023-11-21T08:44:22;100985.13;;;5.52;76.38
83563;BME280;73535;52.500;13.482;2023-11-21T08:46:48;100991.72;;;5.60;76.41
83563;BME280;73535;52.500;13.482;2023-11-21T08:49:13;100996.09;;;5.60;76.29
83563;BME280;73535;52.500;13.482;2023-11-21T08:51:40;101001.31;;;5.60;75.78
83563;BME280;73535;52.500;13.482;2023-11-21T08:54:05;101008.47;;;5.55;76.70
83563;BME280;73535;52.500;13.482;2023-11-21T08:56:33;101009.41;;;5.54;76.91
83563;BME280;73535;52.500;13.482;2023-11-21T08:58:59;101018.47;;;5.45;76.58
83563;BME280;73535;52.500;13.482;2023-11-21T09:01:27;101003.09;;;5.39;76.05
83563;BME280;73535;52.500;13.482;2023-11-21T09:03:52;101015.19;;;5.40;76.21
83563;BME280;73535;52.500;13.482;2023-11-21T09:06:18;101009.16;;;5.40;76.64
83563;BME280;73535;52.500;13.482;2023-11-21T09:08:43;101014.19;;;5.43;76.57
83563;BME280;73535;52.500;13.482;2023-11-21T09:11:08;101027.44;;;5.38;76.53
83563;BME280;73535;52.500;13.482;2023-11-21T09:13:34;101030.13;;;5.37;76.54
83563;BME280;73535;52.500;13.482;2023-11-21T09:15:59;101035.72;;;5.48;76.38
83563;BME280;73535;52.500;13.482;2023-11-21T09:18:25;101047.91;;;5.47;76.34
83563;BME280;73535;52.500;13.482;2023-11-21T09:20:50;101041.72;;;5.50;76.49
83563;BME280;73535;52.500;13.482;2023-11-21T09:23:15;101042.31;;;5.56;76.80
83563;BME280;73535;52.500;13.482;2023-11-21T09:25:40;101051.88;;;5.56;77.09
83563;BME280;73535;52.500;13.482;2023-11-21T09:28:06;101059.75;;;5.54;77.05
83563;BME280;73535;52.500;13.482;2023-11-21T09:30:34;101066.06;;;5.49;76.36
83563;BME280;73535;52.500;13.482;2023-11-21T09:33:00;101070.47;;;5.48;76.45
83563;BME280;73535;52.500;13.482;2023-11-21T09:35:25;101060.72;;;5.52;76.23
83563;BME280;73535;52.500;13.482;2023-11-21T09:37:51;101070.38;;;5.50;76.53
83563;BME280;73535;52.500;13.482;2023-11-21T09:40:21;101074.94;;;5.45;75.65
83563;BME280;73535;52.500;13.482;2023-11-21T09:42:54;101069.59;;;5.48;75.74
83563;BME280;73535;52.500;13.482;2023-11-21T09:45:31;101074.56;;;5.54;75.40
83563;BME280;73535;52.500;13.482;2023-11-21T09:47:59;101081.47;;;5.55;75.66
83563;BME280;73535;52.500;13.482;2023-11-21T09:50:25;101079.66;;;5.57;75.41
83563;BME280;73535;52.500;13.482;2023-11-21T09:53:16;101085.97;;;5.51;74.91
83563;BME280;73535;52.500;13.482;2023-11-21T09:55:44;101085.13;;;5.51;75.28
83563;BME280;73535;52.500;13.482;2023-11-21T09:58:10;101090.78;;;5.60;75.39
83563;BME280;73535;52.500;13.482;2023-11-21T10:03:05;101095.88;;;5.63;75.04
83563;BME280;73535;52.500;13.482;2023-11-21T10:05:30;101087.41;;;5.58;74.86
83563;BME280;73535;52.500;13.482;2023-11-21T10:07:59;101094.19;;;5.62;75.19
83563;BME280;73535;52.500;13.482;2023-11-21T10:10:25;101093.97;;;5.67;74.95
83563;BME280;73535;52.500;13.482;2023-11-21T10:12:55;101094.09;;;5.64;74.82
83563;BME280;73535;52.500;13.482;2023-11-21T10:15:22;101097.78;;;5.60;74.75
83563;BME280;73535;52.500;13.482;2023-11-21T10:17:49;101100.38;;;5.60;74.72
83563;BME280;73535;52.500;13.482;2023-11-21T10:20:15;101100.50;;;5.57;74.69
83563;BME280;73535;52.500;13.482;2023-11-21T10:22:42;101105.84;;;5.54;74.70
83563;BME280;73535;52.500;13.482;2023-11-21T10:25:10;101094.75;;;5.49;74.49
83563;BME280;73535;52.500;13.482;2023-11-21T10:27:37;101093.06;;;5.48;74.67
83563;BME280;73535;52.500;13.482;2023-11-21T10:30:07;101102.69;;;5.46;74.70
83563;BME280;73535;52.500;13.482;2023-11-21T10:32:37;101101.47;;;5.54;74.88
83563;BME280;73535;52.500;13.482;2023-11-21T10:35:02;101100.69;;;5.52;75.19
83563;BME280;73535;52.500;13.482;2023-11-21T10:37:32;101103.63;;;5.45;75.05
83563;BME280;73535;52.500;13.482;2023-11-21T10:39:58;101110.50;;;5.46;75.68
83563;BME280;73535;52.500;13.482;2023-11-21T10:42:24;101121.38;;;5.35;74.74
83563;BME280;73535;52.500;13.482;2023-11-21T10:44:49;101114.44;;;5.36;75.23
83563;BME280;73535;52.500;13.482;2023-11-21T10:47:15;101129.84;;;5.40;75.17
83563;BME280;73535;52.500;13.482;2023-11-21T10:49:41;101122.50;;;5.30;75.44
83563;BME280;73535;52.500;13.482;2023-11-21T10:52:07;101117.94;;;5.35;75.43
83563;BME280;73535;52.500;13.482;2023-11-21T10:54:32;101129.03;;;5.40;75.77
83563;BME280;73535;52.500;13.482;2023-11-21T10:56:59;101128.22;;;5.38;75.74
83563;BME280;73535;52.500;13.482;2023-11-21T10:59:28;101130.84;;;5.38;76.34
83563;BME280;73535;52.500;13.482;2023-11-21T11:01:57;101127.97;;;5.44;75.98
83563;BME280;73535;52.500;13.482;2023-11-21T11:04:24;101121.25;;;5.38;75.69
83563;BME280;73535;52.500;13.482;2023-11-21T11:06:57;101128.88;;;5.43;75.81
83563;BME280;73535;52.500;13.482;2023-11-21T11:09:23;101134.09;;;5.43;75.80
83563;BME280;73535;52.500;13.482;2023-11-21T11:11:48;101129.72;;;5.43;76.18
83563;BME280;73535;52.500;13.482;2023-11-21T11:14:14;101134.91;;;5.45;76.32
83563;BME280;73535;52.500;13.482;2023-11-21T11:16:40;101142.06;;;5.40;75.91
83563;BME280;73535;52.500;13.482;2023-11-21T11:19:10;101136.38;;;5.30;76.44
83563;BME280;73535;52.500;13.482;2023-11-21T11:24:47;101141.03;;;5.22;76.95
83563;BME280;73535;52.500;13.482;2023-11-21T11:27:37;101153.34;;;5.19;76.77
83563;BME280;73535;52.500;13.482;2023-11-21T11:35:24;101169.38;;;5.08;78.53
83563;BME280;73535;52.500;13.482;2023-11-21T11:37:54;101168.91;;;4.98;79.03
83563;BME280;73535;52.500;13.482;2023-11-21T11:40:19;101173.56;;;4.90;79.20
83563;BME280;73535;52.500;13.482;2023-11-21T11:43:00;101178.81;;;4.89;79.39
83563;BME280;73535;52.500;13.482;2023-11-21T11:45:33;101183.91;;;4.92;79.87
83563;BME280;73535;52.500;13.482;2023-11-21T11:48:00;101185.88;;;4.85;79.73
83563;BME280;73535;52.500;13.482;2023-11-21T11:50:26;101191.41;;;4.78;79.67
83563;BME280;73535;52.500;13.482;2023-11-21T11:52:54;101197.13;;;4.87;78.24
83563;BME280;73535;52.500;13.482;2023-11-21T11:55:23;101204.63;;;4.95;78.18
83563;BME280;73535;52.500;13.482;2023-11-21T11:57:53;101200.28;;;4.95;78.09
83563;BME280;73535;52.500;13.482;2023-11-21T12:00:33;101205.47;;;4.95;77.25
83563;BME280;73535;52.500;13.482;2023-11-21T12:03:03;101204.44;;;4.99;77.06
83563;BME280;73535;52.500;13.482;2023-11-21T12:05:30;101210.56;;;4.98;76.84
83563;BME280;73535;52.500;13.482;2023-11-21T12:08:00;101214.94;;;4.98;76.73
83563;BME280;73535;52.500;13.482;2023-11-21T12:10:28;101220.72;;;4.83;77.13
83563;BME280;73535;52.500;13.482;2023-11-21T12:13:00;101223.38;;;4.81;77.13
83563;BME280;73535;52.500;13.482;2023-11-21T12:15:26;101224.94;;;4.85;77.43
83563;BME280;73535;52.500;13.482;2023-11-21T12:17:54;101228.59;;;4.81;77.46
83563;BME280;73535;52.500;13.482;2023-11-21T12:20:21;101226.88;;;4.80;77.26
83563;BME280;73535;52.500;13.482;2023-11-21T12:22:48;101231.41;;;4.75;77.56
83563;BME280;73535;52.500;13.482;2023-11-21T12:25:15;101234.69;;;4.80;77.38
83563;BME280;73535;52.500;13.482;2023-11-21T12:27:42;101239.72;;;4.85;77.21
83563;BME280;73535;52.500;13.482;2023-11-21T12:30:08;101239.00;;;4.81;78.10
83563;BME280;73535;52.500;13.482;2023-11-21T12:32:38;101244.03;;;4.86;78.51
83563;BME280;73535;52.500;13.482;2023-11-21T12:35:04;101244.88;;;4.86;78.87
83563;BME280;73535;52.500;13.482;2023-11-21T12:37:31;101249.19;;;4.87;79.33
83563;BME280;73535;52.500;13.482;2023-11-21T12:39:57;101255.19;;;4.89;79.52
83563;BME280;73535;52.500;13.482;2023-11-21T12:42:23;101258.47;;;4.94;79.85
83563;BME280;73535;52.500;13.482;2023-11-21T12:44:48;101262.91;;;4.92;79.91
83563;BME280;73535;52.500;13.482;2023-11-21T12:47:30;101263.91;;;4.88;80.89
83563;BME280;73535;52.500;13.482;2023-11-21T12:49:56;101267.06;;;4.96;79.98
83563;BME280;73535;52.500;13.482;2023-11-21T12:52:24;101249.69;;;4.97;79.89
83563;BME280;73535;52.500;13.482;2023-11-21T12:54:49;101259.66;;;4.86;79.36
83563;BME280;73535;52.500;13.482;2023-11-21T12:57:15;101259.94;;;4.78;79.12